Time;durP1;ratioP1;P1;durP2;ratioP2;P2;SDS_P1;SDS_P2;PMS_P1;PMS_P2;Temp;Humidity;BMP_temperature;BMP_pressure;BME280_temperature;BME280_humidity;BME280_pressure;Samples;Min_cycle;Max_cycle;Signal;HPM_P1;HPM_P2
2023/03/16 00:01:16;;;;;;;11.57;4.03;;;6.40;74.80;;;;;;5083850;28;20033;-72
2023/03/16 00:03:42;;;;;;;11.18;4.50;;;6.50;75.30;;;;;;5076566;28;20021;-71
2023/03/16 00:06:08;;;;;;;9.77;3.97;;;6.40;75.00;;;;;;5081429;28;20020;-72
2023/03/16 00:08:34;;;;;;;7.97;3.80;;;6.40;74.90;;;;;;5074011;28;20132;-72
2023/03/16 00:11:01;;;;;;;9.65;4.65;;;6.50;75.10;;;;;;5084866;28;20021;-73
2023/03/16 00:13:28;;;;;;;6.30;3.30;;;6.40;75.20;;;;;;5078961;28;20012;-72
2023/03/16 00:15:56;;;;;;;7.57;3.80;;;6.40;75.30;;;;;;5086072;28;20055;-73
2023/03/16 00:18:26;;;;;;;6.75;3.42;;;6.50;75.40;;;;;;5085826;28;20032;-71
2023/03/16 00:20:58;;;;;;;10.25;3.70;;;6.40;75.40;;;;;;5083624;28;20490;-72
2023/03/16 00:23:28;;;;;;;7.10;3.70;;;6.40;75.50;;;;;;5079775;28;20024;-72
2023/03/16 00:25:58;;;;;;;9.20;4.40;;;6.50;75.40;;;;;;5075462;28;20124;-73
2023/03/16 00:28:26;;;;;;;9.05;4.03;;;6.50;75.50;;;;;;5070562;28;20032;-72
2023/03/16 00:30:57;;;;;;;8.10;3.30;;;6.50;75.50;;;;;;5074451;28;20028;-73
2023/03/16 00:33:23;;;;;;;11.93;3.67;;;6.50;76.20;;;;;;5074582;28;20376;-71
2023/03/16 00:35:49;;;;;;;6.30;3.67;;;6.50;75.90;;;;;;5084149;28;20028;-71
2023/03/16 00:38:16;;;;;;;6.07;4.10;;;6.60;75.40;;;;;;5076379;28;20029;-72
2023/03/16 00:40:42;;;;;;;6.45;3.13;;;6.60;75.40;;;;;;5086979;28;20036;-73
2023/03/16 00:43:08;;;;;;;10.02;3.72;;;6.60;75.70;;;;;;5077250;28;20027;-71
2023/03/16 00:45:36;;;;;;;7.18;3.50;;;6.70;75.60;;;;;;5086267;28;20471;-72
2023/03/16 00:48:01;;;;;;;6.65;3.75;;;6.60;75.80;;;;;;5083425;28;20024;-72
2023/03/16 00:50:27;;;;;;;11.88;4.30;;;6.60;76.10;;;;;;5084343;28;20031;-73
2023/03/16 00:52:53;;;;;;;8.05;3.35;;;6.60;76.10;;;;;;5079636;28;20028;-72
2023/03/16 00:55:21;;;;;;;7.07;3.90;;;6.60;76.10;;;;;;5070798;28;20016;-72
2023/03/16 00:57:47;;;;;;;8.18;5.03;;;6.60;76.20;;;;;;5088339;28;20028;-72
2023/03/16 01:00:15;;;;;;;7.70;3.75;;;6.60;76.60;;;;;;5075027;28;20070;-71
2023/03/16 01:02:44;;;;;;;6.85;3.65;;;6.70;76.70;;;;;;5076078;28;20097;-72
2023/03/16 01:05:11;;;;;;;7.97;3.85;;;6.70;77.10;;;;;;5070364;28;20430;-71
2023/03/16 01:07:38;;;;;;;8.70;4.32;;;6.70;77.20;;;;;;5081773;28;20027;-71
2023/03/16 01:10:04;;;;;;;9.15;4.22;;;6.70;77.40;;;;;;5080131;28;20111;-72
2023/03/16 01:12:30;;;;;;;7.97;4.25;;;6.70;77.40;;;;;;5085341;28;20024;-72
2023/03/16 01:14:56;;;;;;;10.00;4.43;;;6.60;77.60;;;;;;5070153;28;20043;-71
2023/03/16 01:17:22;;;;;;;9.80;4.55;;;6.60;77.80;;;;;;5080613;28;20032;-73
2023/03/16 01:19:48;;;;;;;9.30;4.18;;;6.60;78.10;;;;;;5086422;28;20036;-73
2023/03/16 01:22:14;;;;;;;6.03;3.92;;;6.70;78.00;;;;;;5075309;28;20021;-73
2023/03/16 01:24:44;;;;;;;12.65;4.00;;;6.70;78.00;;;;;;5070555;28;20150;-71
2023/03/16 01:27:11;;;;;;;7.15;3.30;;;6.80;78.10;;;;;;5076815;28;20077;-72
2023/03/16 01:29:38;;;;;;;9.25;3.63;;;6.70;78.00;;;;;;5079112;28;20116;-73
2023/03/16 01:32:05;;;;;;;7.38;4.40;;;6.80;78.20;;;;;;5079372;28;20028;-71
2023/03/16 01:34:32;;;;;;;8.35;4.50;;;6.70;78.50;;;;;;5090559;28;20028;-72
2023/03/16 01:36:58;;;;;;;6.70;3.85;;;6.70;78.40;;;;;;5080135;28;20016;-71
2023/03/16 01:39:24;;;;;;;11.63;4.65;;;6.70;78.50;;;;;;5080104;28;20040;-71
2023/03/16 01:41:50;;;;;;;9.18;4.50;;;6.70;78.50;;;;;;5071108;28;20029;-71
2023/03/16 01:44:23;;;;;;;7.30;3.78;;;6.70;78.30;;;;;;5084977;28;20023;-72
2023/03/16 01:46:49;;;;;;;7.82;4.22;;;6.60;78.70;;;;;;5088356;28;20463;-72
2023/03/16 01:49:26;;;;;;;10.23;4.43;;;6.60;78.80;;;;;;5075600;28;20746;-71
2023/03/16 01:51:58;;;;;;;7.32;4.47;;;6.60;78.90;;;;;;5082081;28;20020;-71
2023/03/16 01:54:47;;;;;;;7.22;3.42;;;6.60;79.00;;;;;;5077568;28;20036;-71
2023/03/16 01:57:31;;;;;;;7.28;3.90;;;6.50;79.60;;;;;;5078695;28;20032;-72
2023/03/16 02:00:09;;;;;;;8.68;3.65;;;6.50;79.60;;;;;;5081874;28;20523;-72
2023/03/16 02:02:38;;;;;;;7.07;3.20;;;6.50;79.60;;;;;;5072133;28;20028;-70
2023/03/16 02:05:22;;;;;;;10.48;3.95;;;6.50;79.90;;;;;;5069305;28;20020;-72
2023/03/16 02:07:57;;;;;;;9.00;4.20;;;6.50;80.10;;;;;;5073985;28;20052;-72
2023/03/16 02:10:23;;;;;;;8.38;4.72;;;6.50;79.80;;;;;;5074636;28;20104;-73
2023/03/16 02:12:49;;;;;;;7.80;3.85;;;6.50;80.10;;;;;;5073421;28;20074;-72
2023/03/16 02:15:15;;;;;;;8.95;4.40;;;6.40;80.40;;;;;;5077942;28;20541;-72
2023/03/16 02:17:42;;;;;;;7.88;3.95;;;6.40;80.40;;;;;;5070298;28;20162;-73
2023/03/16 02:20:33;;;;;;;10.15;4.50;;;6.40;80.40;;;;;;5078046;28;20040;-73
2023/03/16 02:23:01;;;;;;;7.68;3.83;;;6.40;80.70;;;;;;5069940;28;20075;-72
2023/03/16 02:25:50;;;;;;;6.57;4.00;;;6.40;80.60;;;;;;5073679;28;20077;-72
2023/03/16 02:28:29;;;;;;;6.45;4.05;;;6.50;80.40;;;;;;5067566;28;20039;-72
2023/03/16 02:30:56;;;;;;;6.22;3.85;;;6.50;80.40;;;;;;5084056;28;20040;-71
2023/03/16 02:33:22;;;;;;;5.90;3.60;;;6.40;80.70;;;;;;5074435;28;20028;-73
2023/03/16 02:35:48;;;;;;;6.38;3.92;;;6.40;80.80;;;;;;5085428;28;20028;-72
2023/03/16 02:38:14;;;;;;;8.27;4.20;;;6.40;80.90;;;;;;5075083;28;20025;-73
2023/03/16 02:40:42;;;;;;;13.15;4.40;;;6.40;81.00;;;;;;5081110;28;20374;-71
2023/03/16 02:43:08;;;;;;;6.80;3.78;;;6.40;81.40;;;;;;5076503;28;20024;-73
2023/03/16 02:45:46;;;;;;;6.32;4.38;;;6.50;81.10;;;;;;5082526;28;20478;-72
2023/03/16 02:48:21;;;;;;;8.43;4.20;;;6.50;81.40;;;;;;5085319;28;20145;-71
2023/03/16 02:50:48;;;;;;;9.57;4.35;;;6.50;81.10;;;;;;5073110;28;20094;-71
2023/03/16 02:53:14;;;;;;;13.43;4.60;;;6.50;81.20;;;;;;5072948;28;20796;-72
2023/03/16 02:55:40;;;;;;;6.80;4.22;;;6.50;81.50;;;;;;5072643;28;21084;-72
2023/03/16 02:58:06;;;;;;;8.63;3.72;;;6.50;81.30;;;;;;5073120;28;20045;-73
2023/03/16 03:00:31;;;;;;;10.10;4.30;;;6.50;81.20;;;;;;5081089;28;20036;-72
2023/03/16 03:02:57;;;;;;;11.60;5.30;;;6.50;81.30;;;;;;5081994;28;20020;-72
2023/03/16 03:05:23;;;;;;;8.20;3.83;;;6.50;81.50;;;;;;5073814;28;20024;-73
2023/03/16 03:07:50;;;;;;;9.20;4.20;;;6.50;81.40;;;;;;5079495;28;20039;-72
2023/03/16 03:10:15;;;;;;;9.50;4.70;;;6.50;81.40;;;;;;5073031;28;20069;-72
2023/03/16 03:12:41;;;;;;;6.30;3.92;;;6.50;81.40;;;;;;5082821;28;20738;-72
2023/03/16 03:15:07;;;;;;;7.13;4.53;;;6.60;81.50;;;;;;5075497;28;20024;-72
2023/03/16 03:17:34;;;;;;;8.55;4.50;;;6.50;81.70;;;;;;5076379;28;20069;-72
2023/03/16 03:20:12;;;;;;;6.25;4.15;;;6.50;82.30;;;;;;5079854;28;20051;-73
2023/03/16 03:22:38;;;;;;;8.75;4.45;;;6.50;82.30;;;;;;5087824;28;20020;-72
2023/03/16 03:25:04;;;;;;;7.25;4.18;;;6.50;82.50;;;;;;5089566;28;20118;-73
2023/03/16 03:27:32;;;;;;;8.85;4.45;;;6.40;82.60;;;;;;5091622;28;20530;-71
2023/03/16 03:29:57;;;;;;;9.85;4.47;;;6.40;83.30;;;;;;5078521;28;20039;-72
2023/03/16 03:32:23;;;;;;;9.93;4.38;;;6.50;82.90;;;;;;5081690;28;20440;-72
2023/03/16 03:34:49;;;;;;;7.93;4.50;;;6.40;83.20;;;;;;5078354;28;20028;-71
2023/03/16 03:37:14;;;;;;;7.20;4.35;;;6.40;83.50;;;;;;5080565;28;20032;-73
2023/03/16 03:39:40;;;;;;;5.60;3.83;;;6.40;83.60;;;;;;5079349;28;20040;-72
2023/03/16 03:42:06;;;;;;;8.93;4.20;;;6.50;83.70;;;;;;5075765;28;20123;-72
2023/03/16 03:44:33;;;;;;;8.65;4.32;;;6.50;84.10;;;;;;5076447;28;20025;-72
2023/03/16 03:46:59;;;;;;;9.10;4.75;;;6.50;84.00;;;;;;5074715;28;20024;-72
2023/03/16 03:49:25;;;;;;;7.53;4.20;;;6.50;84.30;;;;;;5086502;28;20470;-71
2023/03/16 03:51:50;;;;;;;6.80;3.72;;;6.50;84.30;;;;;;5072283;28;20108;-73
2023/03/16 03:54:16;;;;;;;8.75;4.65;;;6.40;84.70;;;;;;5078023;28;21714;-72
2023/03/16 03:56:42;;;;;;;8.52;4.70;;;6.40;85.20;;;;;;5085700;28;20042;-72
2023/03/16 03:59:08;;;;;;;8.20;4.40;;;6.40;85.30;;;;;;5081353;28;20043;-72
2023/03/16 04:01:33;;;;;;;8.25;4.30;;;6.50;85.50;;;;;;5084269;28;20430;-73
2023/03/16 04:03:59;;;;;;;8.75;4.50;;;6.50;85.20;;;;;;5084993;28;20105;-72
2023/03/16 04:06:25;;;;;;;9.23;3.65;;;6.50;85.40;;;;;;5085560;28;20177;-73
2023/03/16 04:08:53;;;;;;;9.30;4.75;;;6.50;85.50;;;;;;5083413;28;20047;-71
2023/03/16 04:11:19;;;;;;;6.38;4.10;;;6.40;85.70;;;;;;5073300;28;20029;-73
2023/03/16 04:13:45;;;;;;;8.90;4.43;;;6.40;86.20;;;;;;5082427;28;20027;-72
2023/03/16 04:16:15;;;;;;;8.18;4.50;;;6.40;86.60;;;;;;5082543;28;20560;-71
2023/03/16 04:18:41;;;;;;;5.73;3.80;;;6.30;86.70;;;;;;5079966;28;20470;-72
2023/03/16 04:21:11;;;;;;;8.77;4.20;;;6.30;86.80;;;;;;5080993;28;20089;-72
2023/03/16 04:23:38;;;;;;;9.15;4.75;;;6.30;87.20;;;;;;5082322;28;20024;-72
2023/03/16 04:26:04;;;;;;;7.40;4.65;;;6.30;87.50;;;;;;5071956;28;20119;-72
2023/03/16 04:28:31;;;;;;;9.95;4.55;;;6.20;88.00;;;;;;5084459;28;20048;-71
2023/03/16 04:31:05;;;;;;;7.65;4.28;;;6.20;88.50;;;;;;5080667;28;20074;-72
2023/03/16 04:33:35;;;;;;;8.00;4.40;;;6.20;88.80;;;;;;5080608;28;20053;-72
2023/03/16 04:36:01;;;;;;;7.68;4.03;;;6.20;88.60;;;;;;5084384;28;20466;-71
2023/03/16 04:38:28;;;;;;;6.18;3.55;;;6.20;88.90;;;;;;5086437;28;20035;-72
2023/03/16 04:40:54;;;;;;;7.85;4.10;;;6.10;89.50;;;;;;5086440;28;20482;-71
2023/03/16 04:43:20;;;;;;;6.85;3.95;;;6.00;89.80;;;;;;5082508;28;20099;-71
2023/03/16 04:45:45;;;;;;;8.75;5.28;;;6.10;90.00;;;;;;5082093;28;20107;-72
2023/03/16 04:48:11;;;;;;;8.70;4.60;;;6.10;89.90;;;;;;5082840;28;20074;-72
2023/03/16 04:50:37;;;;;;;9.43;4.47;;;6.00;90.00;;;;;;5082392;28;20034;-71
2023/03/16 04:53:03;;;;;;;5.65;3.80;;;6.00;90.00;;;;;;5081441;28;20024;-72
2023/03/16 04:55:30;;;;;;;6.25;4.00;;;6.00;90.10;;;;;;5076586;28;20032;-72
2023/03/16 04:57:56;;;;;;;8.93;4.00;;;6.00;90.20;;;;;;5083393;28;20032;-73
2023/03/16 05:00:22;;;;;;;5.90;3.60;;;5.90;90.20;;;;;;5085148;28;20035;-72
2023/03/16 05:02:49;;;;;;;7.93;4.60;;;5.90;90.20;;;;;;5078991;28;20762;-72
2023/03/16 05:05:17;;;;;;;10.23;4.35;;;5.90;90.40;;;;;;5078994;28;20435;-72
2023/03/16 05:07:43;;;;;;;7.25;4.10;;;6.00;90.40;;;;;;5084008;28;20034;-72
2023/03/16 05:10:15;;;;;;;7.38;5.03;;;6.10;90.20;;;;;;5082659;28;20020;-72
2023/03/16 05:12:41;;;;;;;9.48;4.20;;;6.00;90.20;;;;;;5083809;28;20553;-72
2023/03/16 05:15:08;;;;;;;8.60;4.43;;;6.00;90.20;;;;;;5083279;28;20115;-73
2023/03/16 05:17:36;;;;;;;10.88;4.60;;;6.00;90.20;;;;;;5084004;28;20055;-72
2023/03/16 05:20:07;;;;;;;13.70;5.20;;;6.00;90.60;;;;;;5082066;28;20036;-72
2023/03/16 05:22:34;;;;;;;9.15;4.15;;;6.00;90.10;;;;;;5080622;28;20394;-72
2023/03/16 05:25:02;;;;;;;9.07;4.43;;;6.00;90.20;;;;;;5080267;28;20020;-73
2023/03/16 05:27:28;;;;;;;11.50;4.97;;;6.00;90.30;;;;;;5081127;28;20051;-72
2023/03/16 05:29:54;;;;;;;6.72;4.30;;;6.00;90.20;;;;;;5079378;28;20020;-72
2023/03/16 05:32:20;;;;;;;9.23;5.63;;;6.10;90.10;;;;;;5083417;28;20126;-72
2023/03/16 05:34:46;;;;;;;7.40;4.30;;;6.10;90.10;;;;;;5078948;28;20021;-73
2023/03/16 05:37:12;;;;;;;10.35;5.13;;;6.10;90.00;;;;;;5082700;28;20032;-72
2023/03/16 05:39:37;;;;;;;6.30;4.40;;;6.10;90.00;;;;;;5084180;28;20032;-72
2023/03/16 05:42:04;;;;;;;8.30;4.85;;;6.00;90.30;;;;;;5079624;28;20427;-72
2023/03/16 05:44:31;;;;;;;7.55;4.82;;;6.00;90.10;;;;;;5078405;28;22040;-71
2023/03/16 05:46:56;;;;;;;7.13;4.32;;;6.10;90.20;;;;;;5081764;28;20566;-74
2023/03/16 05:49:22;;;;;;;7.72;5.30;;;6.00;90.20;;;;;;5076677;28;20043;-72
2023/03/16 05:51:49;;;;;;;8.50;4.35;;;6.00;90.40;;;;;;5082694;28;20049;-72
2023/03/16 05:54:14;;;;;;;7.80;4.50;;;6.00;90.40;;;;;;5079733;28;20032;-72
2023/03/16 05:56:40;;;;;;;8.93;4.80;;;6.00;90.50;;;;;;5084172;28;20076;-72
2023/03/16 05:59:06;;;;;;;8.30;4.40;;;6.10;90.60;;;;;;5081555;28;20112;-72
2023/03/16 06:01:33;;;;;;;12.05;4.95;;;6.10;90.50;;;;;;5082338;28;20032;-72
2023/03/16 06:04:01;;;;;;;7.43;4.05;;;6.10;90.40;;;;;;5082303;28;20016;-72
2023/03/16 06:06:27;;;;;;;8.80;4.78;;;6.10;90.40;;;;;;5082099;28;20035;-72
2023/03/16 06:08:53;;;;;;;10.40;4.90;;;6.10;90.50;;;;;;5082541;28;20052;-73
2023/03/16 06:11:19;;;;;;;9.20;4.93;;;6.10;90.60;;;;;;5075609;28;20063;-71
2023/03/16 06:13:44;;;;;;;9.13;4.30;;;6.10;90.60;;;;;;5079267;28;20060;-71
2023/03/16 06:16:13;;;;;;;10.27;5.03;;;6.10;90.80;;;;;;5082296;28;20068;-71
2023/03/16 06:18:39;;;;;;;7.38;4.35;;;6.10;90.90;;;;;;5080678;28;20104;-73
2023/03/16 06:21:06;;;;;;;6.97;4.30;;;6.10;90.90;;;;;;5081858;28;20032;-70
2023/03/16 06:23:32;;;;;;;7.55;4.65;;;6.00;91.10;;;;;;5078325;28;20024;-71
2023/03/16 06:25:59;;;;;;;10.90;5.28;;;6.00;91.20;;;;;;5080674;28;20094;-72
2023/03/16 06:28:25;;;;;;;10.77;4.88;;;6.10;91.50;;;;;;5078483;28;20140;-70
2023/03/16 06:30:55;;;;;;;10.00;4.85;;;6.00;91.60;;;;;;5080123;28;20146;-71
2023/03/16 06:33:21;;;;;;;9.80;5.63;;;6.10;91.70;;;;;;5077675;28;20035;-72
2023/03/16 06:35:50;;;;;;;8.27;5.10;;;6.10;91.90;;;;;;5080264;28;20016;-71
2023/03/16 06:38:17;;;;;;;11.07;4.95;;;6.10;91.70;;;;;;5078005;28;20105;-71
2023/03/16 06:40:42;;;;;;;7.40;4.40;;;6.10;91.90;;;;;;5081022;28;20486;-72
2023/03/16 06:43:08;;;;;;;7.93;4.68;;;6.10;91.90;;;;;;5077141;28;20024;-72
2023/03/16 06:45:34;;;;;;;9.95;4.47;;;6.10;91.90;;;;;;5078518;28;20470;-71
2023/03/16 06:48:00;;;;;;;9.32;4.57;;;6.10;92.00;;;;;;5076713;28;20029;-72
2023/03/16 06:50:26;;;;;;;9.63;4.78;;;6.10;92.00;;;;;;5080056;28;20032;-71
2023/03/16 06:52:52;;;;;;;8.60;4.43;;;6.10;92.00;;;;;;5075808;28;20103;-72
2023/03/16 06:55:18;;;;;;;9.43;4.88;;;6.10;92.10;;;;;;5081037;28;20103;-71
2023/03/16 06:57:43;;;;;;;8.32;4.90;;;6.10;92.20;;;;;;5081463;28;20028;-71
2023/03/16 07:00:14;;;;;;;10.18;5.20;;;6.20;92.10;;;;;;5080145;28;20035;-70
2023/03/16 07:02:40;;;;;;;7.75;4.60;;;6.20;92.20;;;;;;5078670;28;20055;-71
2023/03/16 07:05:07;;;;;;;7.60;4.40;;;6.20;92.30;;;;;;5076106;28;20879;-70
2023/03/16 07:07:33;;;;;;;9.20;5.13;;;6.20;92.30;;;;;;5078884;28;20061;-70
2023/03/16 07:09:58;;;;;;;9.13;5.55;;;6.20;92.40;;;;;;5079292;28;20048;-70
2023/03/16 07:12:24;;;;;;;8.15;4.72;;;6.30;92.40;;;;;;5081191;28;20048;-71
2023/03/16 07:14:50;;;;;;;9.73;4.90;;;6.20;92.80;;;;;;5080462;28;20157;-71
2023/03/16 07:17:17;;;;;;;10.77;4.65;;;6.20;93.20;;;;;;5081129;28;20016;-71
2023/03/16 07:19:42;;;;;;;10.82;5.40;;;6.20;93.10;;;;;;5082198;28;20086;-72
2023/03/16 07:22:08;;;;;;;10.70;5.03;;;6.30;93.00;;;;;;5076654;28;20070;-71
2023/03/16 07:24:34;;;;;;;10.88;6.25;;;6.30;93.00;;;;;;5069212;28;20020;-71
2023/03/16 07:27:00;;;;;;;7.78;5.53;;;6.20;93.30;;;;;;5078899;28;20076;-71
2023/03/16 07:29:26;;;;;;;9.40;4.97;;;6.20;93.60;;;;;;5080258;28;20827;-72
2023/03/16 07:31:52;;;;;;;10.57;5.28;;;6.20;93.80;;;;;;5077566;28;20024;-71
2023/03/16 07:34:19;;;;;;;9.85;5.57;;;6.30;93.80;;;;;;5078569;28;20519;-72
2023/03/16 07:36:47;;;;;;;8.85;4.93;;;6.30;93.90;;;;;;5075790;28;20499;-72
2023/03/16 07:39:13;;;;;;;9.05;5.88;;;6.30;93.50;;;;;;5078330;28;20016;-70
2023/03/16 07:41:39;;;;;;;9.73;6.05;;;6.40;93.30;;;;;;5081219;28;20031;-71
2023/03/16 07:44:06;;;;;;;10.27;5.85;;;6.40;93.80;;;;;;5078853;28;20155;-71
2023/03/16 07:46:31;;;;;;;10.23;6.70;;;6.30;93.90;;;;;;5077823;28;20497;-71
2023/03/16 07:48:57;;;;;;;9.40;4.93;;;6.30;94.00;;;;;;5079922;28;20023;-71
2023/03/16 07:51:23;;;;;;;9.68;5.32;;;6.30;94.00;;;;;;5077763;28;20115;-70
2023/03/16 07:53:49;;;;;;;10.63;7.07;;;6.30;94.30;;;;;;5078473;28;20467;-72
2023/03/16 07:56:14;;;;;;;7.47;5.18;;;6.40;94.40;;;;;;5082964;28;20024;-72
2023/03/16 07:58:40;;;;;;;10.35;6.00;;;6.40;94.40;;;;;;5078746;28;20037;-72
2023/03/16 08:01:06;;;;;;;9.90;6.03;;;6.40;94.80;;;;;;5080228;28;20051;-71
2023/03/16 08:03:32;;;;;;;11.10;6.57;;;6.40;94.50;;;;;;5078763;28;20025;-71
2023/03/16 08:05:57;;;;;;;10.50;5.93;;;6.40;94.50;;;;;;5076496;28;20101;-72
2023/03/16 08:08:23;;;;;;;9.70;5.68;;;6.40;94.70;;;;;;5086758;28;20476;-72
2023/03/16 08:10:51;;;;;;;13.38;6.47;;;6.40;94.80;;;;;;5077770;28;20091;-72
2023/03/16 08:13:17;;;;;;;10.52;5.85;;;6.30;94.80;;;;;;5084678;28;20028;-70
2023/03/16 08:15:48;;;;;;;11.10;6.30;;;6.40;94.70;;;;;;5081781;28;20040;-72
2023/03/16 08:18:13;;;;;;;9.82;5.70;;;6.40;94.80;;;;;;5081294;28;20074;-71
2023/03/16 08:20:40;;;;;;;9.60;4.95;;;6.40;94.70;;;;;;5082873;28;20063;-72
2023/03/16 08:23:06;;;;;;;12.43;5.93;;;6.40;94.70;;;;;;5086163;28;20032;-71
2023/03/16 08:25:32;;;;;;;13.70;6.00;;;6.50;94.90;;;;;;5077850;28;20046;-72
2023/03/16 08:27:57;;;;;;;11.45;4.95;;;6.50;94.40;;;;;;5088548;28;20034;-71
2023/03/16 08:30:24;;;;;;;9.55;5.75;;;6.50;94.50;;;;;;5074634;28;20541;-71
2023/03/16 08:32:49;;;;;;;8.27;5.15;;;6.60;94.40;;;;;;5078687;28;20021;-71
2023/03/16 08:35:15;;;;;;;9.75;5.03;;;6.60;94.70;;;;;;5084900;28;20031;-71
2023/03/16 08:37:42;;;;;;;8.55;5.13;;;6.60;94.60;;;;;;5073941;28;20025;-71
2023/03/16 08:40:14;;;;;;;8.82;4.38;;;6.60;94.70;;;;;;5086309;28;20056;-70
2023/03/16 08:42:40;;;;;;;9.65;4.78;;;6.70;94.60;;;;;;5075405;28;20501;-71
2023/03/16 08:45:08;;;;;;;8.75;3.70;;;6.70;94.50;;;;;;5075637;28;20036;-70
2023/03/16 08:47:39;;;;;;;10.43;5.07;;;6.80;94.40;;;;;;5074779;28;20032;-71
2023/03/16 08:50:06;;;;;;;7.53;4.40;;;6.80;94.60;;;;;;5075950;28;20032;-71
2023/03/16 08:52:33;;;;;;;9.52;5.30;;;6.90;94.50;;;;;;5087176;28;20028;-71
2023/03/16 08:54:59;;;;;;;10.02;5.85;;;6.90;94.30;;;;;;5071722;28;20032;-71
2023/03/16 08:57:25;;;;;;;12.55;5.95;;;7.00;94.20;;;;;;5075171;28;20074;-71
2023/03/16 08:59:50;;;;;;;7.88;4.50;;;7.10;94.20;;;;;;5081340;28;20029;-71
2023/03/16 09:02:16;;;;;;;9.10;4.28;;;7.10;94.10;;;;;;5080744;28;20126;-71
2023/03/16 09:04:41;;;;;;;11.38;4.10;;;7.10;94.20;;;;;;5080480;28;20025;-72
2023/03/16 09:07:08;;;;;;;9.20;4.85;;;7.10;93.90;;;;;;5078223;28;20054;-70
2023/03/16 09:09:34;;;;;;;9.30;5.18;;;7.10;93.80;;;;;;5083684;28;20047;-72
2023/03/16 09:12:00;;;;;;;8.50;4.57;;;7.20;94.10;;;;;;5077748;28;20515;-71
2023/03/16 09:14:26;;;;;;;7.72;4.20;;;7.20;93.60;;;;;;5082149;28;20425;-72
2023/03/16 09:16:52;;;;;;;9.13;4.68;;;7.20;93.70;;;;;;5069920;28;20048;-71
2023/03/16 09:19:18;;;;;;;11.32;5.20;;;7.20;93.70;;;;;;5074650;28;20048;-70
2023/03/16 09:21:44;;;;;;;7.82;4.60;;;7.30;93.70;;;;;;5080809;28;20033;-70
2023/03/16 09:24:10;;;;;;;7.57;4.10;;;7.30;93.50;;;;;;5070901;28;20103;-70
2023/03/16 09:26:38;;;;;;;8.32;3.95;;;7.30;93.60;;;;;;5082842;28;20107;-71
2023/03/16 09:29:05;;;;;;;7.45;4.25;;;7.20;93.70;;;;;;5080658;28;20020;-72
2023/03/16 09:31:32;;;;;;;7.95;4.43;;;7.40;93.50;;;;;;5076780;28;20471;-72
2023/03/16 09:33:58;;;;;;;7.78;4.88;;;7.40;94.00;;;;;;5073617;28;21094;-72
2023/03/16 09:36:24;;;;;;;7.43;3.78;;;7.50;93.50;;;;;;5076329;28;20040;-70
2023/03/16 09:38:50;;;;;;;10.50;4.70;;;7.50;93.40;;;;;;5080931;28;20028;-70
2023/03/16 09:41:34;;;;;;;7.45;4.32;;;7.50;93.60;;;;;;5076288;28;20041;-72
2023/03/16 09:44:25;;;;;;;11.63;5.25;;;7.60;93.40;;;;;;5079873;28;20477;-71
2023/03/16 09:46:52;;;;;;;9.20;4.30;;;7.60;93.20;;;;;;5069301;28;20113;-72
2023/03/16 09:49:26;;;;;;;8.13;4.20;;;7.60;93.20;;;;;;5082518;28;20020;-72
2023/03/16 09:52:03;;;;;;;8.90;4.20;;;7.70;93.10;;;;;;5082833;28;20025;-72
2023/03/16 09:55:03;;;;;;;8.07;4.03;;;7.70;93.10;;;;;;5071190;28;20032;-72
2023/03/16 09:57:39;;;;;;;10.05;4.25;;;7.80;93.00;;;;;;5045177;28;20455;-72
2023/03/16 10:00:24;;;;;;;10.50;4.32;;;7.80;93.30;;;;;;5077665;28;20024;-71
2023/03/16 10:03:08;;;;;;;10.25;3.92;;;7.80;93.10;;;;;;5071161;28;20044;-70
2023/03/16 10:05:35;;;;;;;8.40;3.95;;;7.90;93.10;;;;;;5073669;28;20016;-71
2023/03/16 10:08:23;;;;;;;8.90;4.78;;;8.00;92.90;;;;;;5069771;28;20505;-72
2023/03/16 10:11:29;;;;;;;9.45;3.80;;;8.00;92.80;;;;;;5073002;28;20028;-71
2023/03/16 10:14:09;;;;;;;8.48;4.22;;;8.10;92.50;;;;;;4998229;28;20100;-71
2023/03/16 10:16:40;;;;;;;6.43;3.35;;;8.10;92.30;;;;;;5063578;28;20154;-71
2023/03/16 10:19:15;;;;;;;8.07;3.70;;;8.20;92.40;;;;;;5085105;28;20020;-70
2023/03/16 10:21:42;;;;;;;8.73;4.32;;;8.20;92.20;;;;;;5078070;28;20035;-73
2023/03/16 10:24:33;;;;;;;13.57;5.30;;;8.30;92.40;;;;;;5071349;28;20060;-72
2023/03/16 10:27:01;;;;;;;7.60;3.67;;;8.40;92.30;;;;;;5078257;28;20119;-72
2023/03/16 10:29:33;;;;;;;12.35;4.30;;;8.50;91.80;;;;;;5086053;28;20012;-71
2023/03/16 10:32:10;;;;;;;8.45;3.65;;;8.60;91.60;;;;;;5073859;28;20432;-71
2023/03/16 10:34:36;;;;;;;6.97;3.60;;;8.80;91.60;;;;;;5072031;28;20024;-71
2023/03/16 10:37:04;;;;;;;8.85;4.32;;;8.90;91.30;;;;;;5082434;28;20015;-72
2023/03/16 10:39:41;;;;;;;7.80;4.95;;;9.00;91.00;;;;;;5069806;28;20025;-73
2023/03/16 10:42:15;;;;;;;13.15;4.70;;;9.10;90.80;;;;;;5085802;28;20118;-71
2023/03/16 10:44:41;;;;;;;7.68;3.88;;;9.30;90.40;;;;;;5086760;28;20028;-72
2023/03/16 10:47:07;;;;;;;9.27;3.80;;;9.30;90.20;;;;;;5073926;28;20407;-72
2023/03/16 10:49:40;;;;;;;7.22;3.45;;;9.50;90.10;;;;;;5075065;28;20070;-72
2023/03/16 10:52:22;;;;;;;8.15;4.15;;;9.60;90.00;;;;;;5084556;28;20028;-72
2023/03/16 10:54:53;;;;;;;10.88;4.13;;;9.60;89.70;;;;;;5070243;28;20021;-71
2023/03/16 10:57:32;;;;;;;7.65;3.75;;;9.80;89.30;;;;;;5084495;28;20363;-71
2023/03/16 11:00:14;;;;;;;5.45;2.70;;;9.90;89.00;;;;;;5074698;28;20039;-72
2023/03/16 11:02:40;;;;;;;7.03;3.60;;;10.10;88.50;;;;;;5076367;28;20035;-72
2023/03/16 11:05:28;;;;;;;5.85;2.70;;;10.40;88.30;;;;;;5076202;28;20060;-71
2023/03/16 11:08:12;;;;;;;6.43;3.38;;;10.70;86.90;;;;;;5080556;28;20052;-72
2023/03/16 11:10:44;;;;;;;10.32;4.68;;;11.00;85.50;;;;;;5069829;28;20028;-72
2023/03/16 11:13:14;;;;;;;11.70;4.28;;;11.10;83.80;;;;;;5087701;28;20024;-71
2023/03/16 11:15:48;;;;;;;7.78;3.38;;;11.20;83.30;;;;;;5072881;28;20029;-72
2023/03/16 11:18:42;;;;;;;7.50;2.92;;;11.20;83.80;;;;;;5084734;28;20016;-71
2023/03/16 11:21:37;;;;;;;7.53;3.80;;;11.30;83.80;;;;;;5070933;28;20032;-71
2023/03/16 11:24:04;;;;;;;8.48;4.13;;;11.30;82.70;;;;;;5077698;28;20032;-71
2023/03/16 11:26:36;;;;;;;7.63;3.28;;;11.40;82.10;;;;;;5073843;28;20024;-72
2023/03/16 11:29:16;;;;;;;8.73;3.58;;;11.40;82.00;;;;;;5071911;28;20025;-70
2023/03/16 11:31:48;;;;;;;;;;;11.50;81.90;;;;;;5069475;28;20493;-71
2023/03/16 11:34:16;;;;;;;7.30;3.15;;;11.50;81.80;;;;;;5080468;28;19904;-71
2023/03/16 11:36:54;;;;;;;6.15;3.30;;;11.40;81.60;;;;;;5076333;28;20021;-71
2023/03/16 11:39:45;;;;;;;7.53;3.72;;;11.40;82.40;;;;;;5078395;28;20074;-72
2023/03/16 11:42:22;;;;;;;10.13;4.10;;;11.40;82.20;;;;;;5078613;28;20136;-72
2023/03/16 11:45:00;;;;;;;7.90;3.00;;;11.40;82.40;;;;;;5082415;28;20688;-71
2023/03/16 11:47:53;;;;;;;6.43;3.00;;;11.50;82.90;;;;;;5080051;28;20024;-70
2023/03/16 11:50:24;;;;;;;7.68;2.63;;;11.50;82.20;;;;;;5075896;28;20438;-71
2023/03/16 11:53:03;;;;;;;;;;;11.50;82.10;;;;;;5082332;28;20066;-71
2023/03/16 11:55:32;;;;;;;10.70;3.57;;;11.50;81.50;;;;;;5075142;28;20290;-71
2023/03/16 11:58:06;;;;;;;6.20;2.65;;;11.50;81.10;;;;;;5077001;28;20016;-71
2023/03/16 12:00:34;;;;;;;8.10;3.13;;;11.50;82.30;;;;;;5079912;28;20052;-71
2023/03/16 12:03:29;;;;;;;8.48;2.50;;;11.50;81.10;;;;;;5074321;28;20025;-70
2023/03/16 12:06:26;;;;;;;6.38;2.42;;;11.50;81.10;;;;;;5080118;28;20052;-71
2023/03/16 12:08:56;;;;;;;6.60;2.70;;;11.50;80.30;;;;;;5072128;28;20044;-72
2023/03/16 12:12:19;;;;;;;5.93;2.28;;;11.60;79.10;;;;;;5073778;28;20191;-72
2023/03/16 12:15:10;;;;;;;6.53;2.95;;;11.70;81.10;;;;;;4994219;28;20062;-72
2023/03/16 12:17:36;;;;;;;6.28;2.55;;;11.70;79.10;;;;;;4973717;28;20886;-71
2023/03/16 12:20:06;;;;;;;6.72;2.75;;;11.70;79.50;;;;;;5063912;28;20071;-73
2023/03/16 12:23:02;;;;;;;7.93;3.45;;;11.80;79.70;;;;;;5084657;28;20114;-72
2023/03/16 12:25:36;;;;;;;5.10;2.40;;;11.90;78.90;;;;;;5084444;28;20077;-71
2023/03/16 12:28:08;;;;;;;6.75;2.60;;;12.00;79.00;;;;;;5079459;28;20028;-72
2023/03/16 12:31:13;;;;;;;11.57;2.97;;;12.10;79.30;;;;;;5080912;28;20016;-71
2023/03/16 12:34:03;;;;;;;6.10;2.65;;;12.00;78.10;;;;;;5071909;28;20107;-72
2023/03/16 12:36:54;;;;;;;4.38;2.03;;;12.10;78.60;;;;;;5074227;28;20028;-72
2023/03/16 12:39:38;;;;;;;8.13;3.00;;;12.30;79.00;;;;;;5076040;28;20076;-72
2023/03/16 12:42:23;;;;;;;6.32;3.05;;;12.40;78.00;;;;;;5088624;28;20036;-72
2023/03/16 12:45:15;;;;;;;5.90;2.38;;;12.60;77.10;;;;;;5087775;28;20019;-72
2023/03/16 12:48:03;;;;;;;6.22;2.03;;;12.90;77.10;;;;;;5076876;28;20142;-71
2023/03/16 12:50:29;;;;;;;6.50;2.10;;;13.00;75.80;;;;;;5076660;28;20094;-71
2023/03/16 12:52:55;;;;;;;7.68;2.60;;;13.00;75.50;;;;;;5081086;28;20025;-70
2023/03/16 12:55:33;;;;;;;6.00;2.92;;;13.20;73.60;;;;;;5076300;28;20032;-71
2023/03/16 12:58:05;;;;;;;7.35;3.17;;;13.20;72.90;;;;;;5087746;28;20028;-72
2023/03/16 13:00:39;;;;;;;7.60;2.60;;;13.40;72.70;;;;;;5080360;28;20039;-72
2023/03/16 13:03:15;;;;;;;6.60;2.70;;;13.50;72.40;;;;;;5071003;28;20021;-71
2023/03/16 13:05:52;;;;;;;4.57;2.00;;;13.60;73.10;;;;;;5082363;28;20257;-72
2023/03/16 13:08:20;;;;;;;8.05;2.58;;;13.90;74.90;;;;;;5074924;28;20044;-71